sensor_id;sensor_type;location;lat;lon;timestamp;temperature;humidity
6355;DHT22;3210;48.708;9.030;2023-02-25T00:00:31;4.00;1.00
6355;DHT22;3210;48.708;9.030;2023-02-25T00:03:00;4.00;1.00
6355;DHT22;3210;48.708;9.030;2023-02-25T00:05:26;4.00;1.00
6355;DHT22;3210;48.708;9.030;2023-02-25T00:07:55;4.00;1.00
6355;DHT22;3210;48.708;9.030;2023-02-25T00:10:22;3.90;1.00
6355;DHT22;3210;48.708;9.030;2023-02-25T00:12:48;3.90;1.00
6355;DHT22;3210;48.708;9.030;2023-02-25T00:15:15;4.00;1.00
6355;DHT22;3210;48.708;9.030;2023-02-25T00:17:42;3.90;1.00
6355;DHT22;3210;48.708;9.030;2023-02-25T00:20:11;3.90;1.00
6355;DHT22;3210;48.708;9.030;2023-02-25T00:22:38;3.90;1.00
6355;DHT22;3210;48.708;9.030;2023-02-25T00:25:06;3.80;1.00
6355;DHT22;3210;48.708;9.030;2023-02-25T00:27:34;3.80;1.00
6355;DHT22;3210;48.708;9.030;2023-02-25T00:30:01;3.80;1.00
6355;DHT22;3210;48.708;9.030;2023-02-25T00:32:28;3.80;1.00
6355;DHT22;3210;48.708;9.030;2023-02-25T00:34:55;3.90;1.00
6355;DHT22;3210;48.708;9.030;2023-02-25T00:37:24;3.90;1.00
6355;DHT22;3210;48.708;9.030;2023-02-25T00:39:50;3.90;1.00
6355;DHT22;3210;48.708;9.030;2023-02-25T00:42:18;4.00;1.00
6355;DHT22;3210;48.708;9.030;2023-02-25T00:44:45;3.90;1.00
6355;DHT22;3210;48.708;9.030;2023-02-25T00:47:12;3.90;1.00
6355;DHT22;3210;48.708;9.030;2023-02-25T00:49:40;3.90;1.00
6355;DHT22;3210;48.708;9.030;2023-02-25T00:52:07;3.90;1.00
6355;DHT22;3210;48.708;9.030;2023-02-25T00:54:35;3.90;1.00
6355;DHT22;3210;48.708;9.030;2023-02-25T00:57:04;4.00;1.00
6355;DHT22;3210;48.708;9.030;2023-02-25T00:59:31;3.90;1.00
6355;DHT22;3210;48.708;9.030;2023-02-25T01:01:57;3.90;1.00
6355;DHT22;3210;48.708;9.030;2023-02-25T01:04:24;3.90;1.00
6355;DHT22;3210;48.708;9.030;2023-02-25T01:06:51;4.00;10.10
6355;DHT22;3210;48.708;9.030;2023-02-25T01:09:18;4.00;17.70
6355;DHT22;3210;48.708;9.030;2023-02-25T01:11:48;4.00;18.20
6355;DHT22;3210;48.708;9.030;2023-02-25T01:14:17;3.90;18.80
6355;DHT22;3210;48.708;9.030;2023-02-25T01:16:45;4.10;16.50
6355;DHT22;3210;48.708;9.030;2023-02-25T01:19:14;4.00;1.00
6355;DHT22;3210;48.708;9.030;2023-02-25T01:21:42;3.90;1.00
6355;DHT22;3210;48.708;9.030;2023-02-25T01:24:12;3.90;1.00
6355;DHT22;3210;48.708;9.030;2023-02-25T01:26:41;3.80;1.00
6355;DHT22;3210;48.708;9.030;2023-02-25T01:29:11;3.80;1.00
6355;DHT22;3210;48.708;9.030;2023-02-25T01:31:38;3.80;1.00
6355;DHT22;3210;48.708;9.030;2023-02-25T01:34:07;3.90;1.00
6355;DHT22;3210;48.708;9.030;2023-02-25T01:36:34;3.90;1.00
6355;DHT22;3210;48.708;9.030;2023-02-25T01:39:02;4.00;1.00
6355;DHT22;3210;48.708;9.030;2023-02-25T01:41:31;4.00;1.00
6355;DHT22;3210;48.708;9.030;2023-02-25T01:44:07;4.00;1.00
6355;DHT22;3210;48.708;9.030;2023-02-25T01:46:36;4.00;1.00
6355;DHT22;3210;48.708;9.030;2023-02-25T01:49:06;3.90;1.00
6355;DHT22;3210;48.708;9.030;2023-02-25T01:51:35;3.90;1.00
6355;DHT22;3210;48.708;9.030;2023-02-25T01:54:03;3.90;1.00
6355;DHT22;3210;48.708;9.030;2023-02-25T01:56:33;3.90;1.00
6355;DHT22;3210;48.708;9.030;2023-02-25T01:59:01;4.00;1.00
6355;DHT22;3210;48.708;9.030;2023-02-25T02:01:31;3.80;1.00
6355;DHT22;3210;48.708;9.030;2023-02-25T02:04:01;3.80;99.90
6355;DHT22;3210;48.708;9.030;2023-02-25T02:06:31;3.60;99.90
6355;DHT22;3210;48.708;9.030;2023-02-25T02:08:59;3.50;99.90
6355;DHT22;3210;48.708;9.030;2023-02-25T02:11:27;3.50;99.90
6355;DHT22;3210;48.708;9.030;2023-02-25T02:13:55;3.60;99.90
6355;DHT22;3210;48.708;9.030;2023-02-25T02:16:48;3.50;99.90
6355;DHT22;3210;48.708;9.030;2023-02-25T02:19:32;3.50;1.00
6355;DHT22;3210;48.708;9.030;2023-02-25T02:22:06;3.40;1.00
6355;DHT22;3210;48.708;9.030;2023-02-25T02:24:57;3.50;1.00
6355;DHT22;3210;48.708;9.030;2023-02-25T02:27:39;3.60;1.00
6355;DHT22;3210;48.708;9.030;2023-02-25T02:33:17;3.70;1.00
6355;DHT22;3210;48.708;9.030;2023-02-25T02:35:52;3.70;1.00
6355;DHT22;3210;48.708;9.030;2023-02-25T02:38:27;3.70;99.90
6355;DHT22;3210;48.708;9.030;2023-02-25T02:41:01;3.60;1.00
6355;DHT22;3210;48.708;9.030;2023-02-25T02:43:36;3.60;1.00
6355;DHT22;3210;48.708;9.030;2023-02-25T02:46:09;3.70;1.00
6355;DHT22;3210;48.708;9.030;2023-02-25T02:48:43;3.80;99.90
6355;DHT22;3210;48.708;9.030;2023-02-25T02:51:16;3.80;99.90
6355;DHT22;3210;48.708;9.030;2023-02-25T02:53:47;3.50;99.90
6355;DHT22;3210;48.708;9.030;2023-02-25T02:56:17;3.30;1.00
6355;DHT22;3210;48.708;9.030;2023-02-25T02:58:47;3.40;99.90
6355;DHT22;3210;48.708;9.030;2023-02-25T03:01:20;3.30;99.90
6355;DHT22;3210;48.708;9.030;2023-02-25T03:03:52;3.40;1.00
6355;DHT22;3210;48.708;9.030;2023-02-25T03:06:27;3.40;1.00
6355;DHT22;3210;48.708;9.030;2023-02-25T03:09:00;3.30;1.00
6355;DHT22;3210;48.708;9.030;2023-02-25T03:11:28;3.40;1.00
6355;DHT22;3210;48.708;9.030;2023-02-25T03:13:55;3.40;1.00
6355;DHT22;3210;48.708;9.030;2023-02-25T03:16:27;3.40;1.00
6355;DHT22;3210;48.708;9.030;2023-02-25T03:18:58;3.40;1.00
6355;DHT22;3210;48.708;9.030;2023-02-25T03:21:32;3.40;1.00
6355;DHT22;3210;48.708;9.030;2023-02-25T03:24:02;3.30;1.00
6355;DHT22;3210;48.708;9.030;2023-02-25T03:26:31;3.30;1.00
6355;DHT22;3210;48.708;9.030;2023-02-25T03:28:58;3.30;99.90
6355;DHT22;3210;48.708;9.030;2023-02-25T03:31:30;3.40;99.90
6355;DHT22;3210;48.708;9.030;2023-02-25T03:34:02;3.30;99.90
6355;DHT22;3210;48.708;9.030;2023-02-25T03:36:32;3.30;1.00
6355;DHT22;3210;48.708;9.030;2023-02-25T03:39:04;3.40;1.00
6355;DHT22;3210;48.708;9.030;2023-02-25T03:41:35;3.40;1.00
6355;DHT22;3210;48.708;9.030;2023-02-25T03:44:07;3.40;1.00
6355;DHT22;3210;48.708;9.030;2023-02-25T03:46:35;3.30;1.00
6355;DHT22;3210;48.708;9.030;2023-02-25T03:49:06;3.40;1.00
6355;DHT22;3210;48.708;9.030;2023-02-25T03:51:35;3.40;99.90
6355;DHT22;3210;48.708;9.030;2023-02-25T03:54:05;3.10;99.90
6355;DHT22;3210;48.708;9.030;2023-02-25T03:56:40;3.20;99.90
6355;DHT22;3210;48.708;9.030;2023-02-25T03:59:07;3.20;99.90
6355;DHT22;3210;48.708;9.030;2023-02-25T04:01:34;3.10;99.90
6355;DHT22;3210;48.708;9.030;2023-02-25T04:04:04;3.10;99.90
6355;DHT22;3210;48.708;9.030;2023-02-25T04:06:31;3.20;99.90
6355;DHT22;3210;48.708;9.030;2023-02-25T04:08:58;3.20;99.90
6355;DHT22;3210;48.708;9.030;2023-02-25T04:11:24;3.30;1.00
6355;DHT22;3210;48.708;9.030;2023-02-25T04:13:51;3.20;1.00
6355;DHT22;3210;48.708;9.030;2023-02-25T04:16:19;3.30;1.00
6355;DHT22;3210;48.708;9.030;2023-02-25T04:18:46;3.20;1.00
6355;DHT22;3210;48.708;9.030;2023-02-25T04:21:25;3.30;1.00
6355;DHT22;3210;48.708;9.030;2023-02-25T04:23:52;3.40;1.00
6355;DHT22;3210;48.708;9.030;2023-02-25T04:26:19;3.30;1.00
6355;DHT22;3210;48.708;9.030;2023-02-25T04:28:45;3.30;99.90
6355;DHT22;3210;48.708;9.030;2023-02-25T04:31:12;3.20;99.90
6355;DHT22;3210;48.708;9.030;2023-02-25T04:33:39;3.20;99.90
6355;DHT22;3210;48.708;9.030;2023-02-25T04:36:22;3.20;99.90
6355;DHT22;3210;48.708;9.030;2023-02-25T04:38:49;3.20;99.90
6355;DHT22;3210;48.708;9.030;2023-02-25T04:41:16;3.10;99.90
6355;DHT22;3210;48.708;9.030;2023-02-25T04:43:42;3.10;99.90
6355;DHT22;3210;48.708;9.030;2023-02-25T04:46:10;3.10;99.90
6355;DHT22;3210;48.708;9.030;2023-02-25T04:48:37;2.90;99.90
6355;DHT22;3210;48.708;9.030;2023-02-25T04:51:05;2.90;99.90
6355;DHT22;3210;48.708;9.030;2023-02-25T04:53:34;2.80;99.90
6355;DHT22;3210;48.708;9.030;2023-02-25T04:56:02;2.80;99.90
6355;DHT22;3210;48.708;9.030;2023-02-25T04:58:29;2.70;99.90
6355;DHT22;3210;48.708;9.030;2023-02-25T05:00:58;2.60;99.90
6355;DHT22;3210;48.708;9.030;2023-02-25T05:03:27;2.80;99.90
6355;DHT22;3210;48.708;9.030;2023-02-25T05:05:54;2.80;99.90
6355;DHT22;3210;48.708;9.030;2023-02-25T05:08:21;2.80;99.90
6355;DHT22;3210;48.708;9.030;2023-02-25T05:10:50;2.80;99.90
6355;DHT22;3210;48.708;9.030;2023-02-25T05:13:17;2.80;99.90
6355;DHT22;3210;48.708;9.030;2023-02-25T05:15:45;2.80;99.90
6355;DHT22;3210;48.708;9.030;2023-02-25T05:18:11;2.70;99.90
6355;DHT22;3210;48.708;9.030;2023-02-25T05:20:39;2.60;99.90
6355;DHT22;3210;48.708;9.030;2023-02-25T05:23:06;2.60;99.90
6355;DHT22;3210;48.708;9.030;2023-02-25T05:25:33;2.50;99.90
6355;DHT22;3210;48.708;9.030;2023-02-25T05:28:01;2.60;99.90
6355;DHT22;3210;48.708;9.030;2023-02-25T05:30:28;2.60;99.90
6355;DHT22;3210;48.708;9.030;2023-02-25T05:32:55;2.60;99.90
6355;DHT22;3210;48.708;9.030;2023-02-25T05:35:21;2.70;99.90
6355;DHT22;3210;48.708;9.030;2023-02-25T05:37:48;2.70;99.90
6355;DHT22;3210;48.708;9.030;2023-02-25T05:40:15;2.70;99.90
6355;DHT22;3210;48.708;9.030;2023-02-25T05:42:42;2.80;99.90
6355;DHT22;3210;48.708;9.030;2023-02-25T05:45:12;2.60;99.90
6355;DHT22;3210;48.708;9.030;2023-02-25T05:47:38;2.60;99.90
6355;DHT22;3210;48.708;9.030;2023-02-25T05:50:05;2.70;99.90
6355;DHT22;3210;48.708;9.030;2023-02-25T05:52:32;2.50;99.90
6355;DHT22;3210;48.708;9.030;2023-02-25T05:54:59;2.40;99.90
6355;DHT22;3210;48.708;9.030;2023-02-25T05:57:26;2.30;99.90
6355;DHT22;3210;48.708;9.030;2023-02-25T05:59:53;2.20;99.90
6355;DHT22;3210;48.708;9.030;2023-02-25T06:02:22;2.20;99.90
6355;DHT22;3210;48.708;9.030;2023-02-25T06:04:51;2.30;99.90
6355;DHT22;3210;48.708;9.030;2023-02-25T06:07:18;2.30;99.90
6355;DHT22;3210;48.708;9.030;2023-02-25T06:09:45;2.30;99.90
6355;DHT22;3210;48.708;9.030;2023-02-25T06:12:12;2.10;99.90
6355;DHT22;3210;48.708;9.030;2023-02-25T06:14:39;2.00;99.90
6355;DHT22;3210;48.708;9.030;2023-02-25T06:17:05;2.10;99.90
6355;DHT22;3210;48.708;9.030;2023-02-25T06:19:33;2.00;99.90
6355;DHT22;3210;48.708;9.030;2023-02-25T06:22:00;2.00;1.00
6355;DHT22;3210;48.708;9.030;2023-02-25T06:24:27;2.00;1.00
6355;DHT22;3210;48.708;9.030;2023-02-25T06:26:54;2.10;1.00
6355;DHT22;3210;48.708;9.030;2023-02-25T06:29:20;2.10;1.00
6355;DHT22;3210;48.708;9.030;2023-02-25T06:31:49;2.00;1.00
6355;DHT22;3210;48.708;9.030;2023-02-25T06:34:15;2.00;1.00
6355;DHT22;3210;48.708;9.030;2023-02-25T06:36:44;2.10;1.00
6355;DHT22;3210;48.708;9.030;2023-02-25T06:39:11;2.10;1.00
6355;DHT22;3210;48.708;9.030;2023-02-25T06:41:38;2.10;1.00
6355;DHT22;3210;48.708;9.030;2023-02-25T06:44:05;2.10;1.00
6355;DHT22;3210;48.708;9.030;2023-02-25T06:46:32;2.20;1.00
6355;DHT22;3210;48.708;9.030;2023-02-25T06:48:59;2.30;1.00
6355;DHT22;3210;48.708;9.030;2023-02-25T06:51:25;2.40;99.90
6355;DHT22;3210;48.708;9.030;2023-02-25T06:53:53;2.40;99.90
6355;DHT22;3210;48.708;9.030;2023-02-25T06:56:20;2.60;99.90
6355;DHT22;3210;48.708;9.030;2023-02-25T06:58:47;2.60;99.90
6355;DHT22;3210;48.708;9.030;2023-02-25T07:01:15;2.60;99.90
6355;DHT22;3210;48.708;9.030;2023-02-25T07:03:42;2.70;99.90
6355;DHT22;3210;48.708;9.030;2023-02-25T07:06:09;2.80;99.90
6355;DHT22;3210;48.708;9.030;2023-02-25T07:08:36;2.80;99.90
6355;DHT22;3210;48.708;9.030;2023-02-25T07:11:26;2.90;99.90
6355;DHT22;3210;48.708;9.030;2023-02-25T07:13:53;2.90;99.90
6355;DHT22;3210;48.708;9.030;2023-02-25T07:16:20;2.90;99.90
6355;DHT22;3210;48.708;9.030;2023-02-25T07:18:47;3.00;99.90
6355;DHT22;3210;48.708;9.030;2023-02-25T07:21:15;3.10;99.90
6355;DHT22;3210;48.708;9.030;2023-02-25T07:23:42;3.10;99.90
6355;DHT22;3210;48.708;9.030;2023-02-25T07:26:11;3.20;99.90
6355;DHT22;3210;48.708;9.030;2023-02-25T07:28:40;3.10;99.90
6355;DHT22;3210;48.708;9.030;2023-02-25T07:31:11;3.10;99.90
6355;DHT22;3210;48.708;9.030;2023-02-25T07:33:38;3.10;99.90
6355;DHT22;3210;48.708;9.030;2023-02-25T07:36:06;3.00;97.20
6355;DHT22;3210;48.708;9.030;2023-02-25T07:38:33;3.00;98.50
6355;DHT22;3210;48.708;9.030;2023-02-25T07:41:03;3.10;99.90
6355;DHT22;3210;48.708;9.030;2023-02-25T07:43:30;3.20;99.90
6355;DHT22;3210;48.708;9.030;2023-02-25T07:45:58;3.20;99.90
6355;DHT22;3210;48.708;9.030;2023-02-25T07:48:25;3.30;95.40
6355;DHT22;3210;48.708;9.030;2023-02-25T07:50:52;3.40;94.60
6355;DHT22;3210;48.708;9.030;2023-02-25T07:53:19;3.40;93.50
6355;DHT22;3210;48.708;9.030;2023-02-25T07:55:47;3.40;86.30
6355;DHT22;3210;48.708;9.030;2023-02-25T07:58:14;3.40;97.40
6355;DHT22;3210;48.708;9.030;2023-02-25T08:00:41;3.40;80.80
6355;DHT22;3210;48.708;9.030;2023-02-25T08:03:12;3.40;54.40
6355;DHT22;3210;48.708;9.030;2023-02-25T08:05:38;3.30;56.00
6355;DHT22;3210;48.708;9.030;2023-02-25T08:08:05;3.40;41.20
6355;DHT22;3210;48.708;9.030;2023-02-25T08:10:32;3.40;37.30
6355;DHT22;3210;48.708;9.030;2023-02-25T08:12:59;3.30;40.60
6355;DHT22;3210;48.708;9.030;2023-02-25T08:15:26;3.40;31.70
6355;DHT22;3210;48.708;9.030;2023-02-25T08:17:52;3.40;32.90
6355;DHT22;3210;48.708;9.030;2023-02-25T08:20:22;3.40;30.50
6355;DHT22;3210;48.708;9.030;2023-02-25T08:22:49;3.40;46.10
6355;DHT22;3210;48.708;9.030;2023-02-25T08:25:16;3.40;28.60
6355;DHT22;3210;48.708;9.030;2023-02-25T08:27:43;3.40;22.70
6355;DHT22;3210;48.708;9.030;2023-02-25T08:30:11;3.40;25.50
6355;DHT22;3210;48.708;9.030;2023-02-25T08:32:39;3.40;27.20
6355;DHT22;3210;48.708;9.030;2023-02-25T08:35:07;3.40;23.20
6355;DHT22;3210;48.708;9.030;2023-02-25T08:37:36;3.30;33.00
6355;DHT22;3210;48.708;9.030;2023-02-25T08:40:04;3.30;23.00
6355;DHT22;3210;48.708;9.030;2023-02-25T08:42:34;3.30;28.80
6355;DHT22;3210;48.708;9.030;2023-02-25T08:45:01;3.30;31.70
6355;DHT22;3210;48.708;9.030;2023-02-25T08:47:28;3.50;27.80
6355;DHT22;3210;48.708;9.030;2023-02-25T08:49:54;3.60;36.30
6355;DHT22;3210;48.708;9.030;2023-02-25T08:52:21;3.60;27.70
6355;DHT22;3210;48.708;9.030;2023-02-25T08:54:49;3.60;26.10
6355;DHT22;3210;48.708;9.030;2023-02-25T08:57:16;3.60;28.30
6355;DHT22;3210;48.708;9.030;2023-02-25T08:59:43;3.60;24.50
6355;DHT22;3210;48.708;9.030;2023-02-25T09:02:11;3.60;23.30
6355;DHT22;3210;48.708;9.030;2023-02-25T09:04:39;3.50;23.60
6355;DHT22;3210;48.708;9.030;2023-02-25T09:07:06;3.50;24.60
6355;DHT22;3210;48.708;9.030;2023-02-25T09:09:33;3.50;16.20
6355;DHT22;3210;48.708;9.030;2023-02-25T09:12:01;3.40;22.70
6355;DHT22;3210;48.708;9.030;2023-02-25T09:14:29;3.50;26.90
6355;DHT22;3210;48.708;9.030;2023-02-25T09:16:56;3.70;38.60
6355;DHT22;3210;48.708;9.030;2023-02-25T09:19:23;3.70;21.70
6355;DHT22;3210;48.708;9.030;2023-02-25T09:21:49;3.70;30.40
6355;DHT22;3210;48.708;9.030;2023-02-25T09:24:16;3.80;25.50
6355;DHT22;3210;48.708;9.030;2023-02-25T09:26:43;3.80;21.50
6355;DHT22;3210;48.708;9.030;2023-02-25T09:29:12;3.80;16.70
6355;DHT22;3210;48.708;9.030;2023-02-25T09:31:38;3.80;21.40
6355;DHT22;3210;48.708;9.030;2023-02-25T09:34:07;3.80;13.20
6355;DHT22;3210;48.708;9.030;2023-02-25T09:36:35;3.90;20.50
6355;DHT22;3210;48.708;9.030;2023-02-25T09:39:02;3.90;14.00
6355;DHT22;3210;48.708;9.030;2023-02-25T09:41:40;4.10;18.10
6355;DHT22;3210;48.708;9.030;2023-02-25T09:44:14;4.50;21.20
6355;DHT22;3210;48.708;9.030;2023-02-25T09:46:48;4.80;18.40
6355;DHT22;3210;48.708;9.030;2023-02-25T09:49:20;4.80;14.20
6355;DHT22;3210;48.708;9.030;2023-02-25T09:51:54;4.70;13.50
6355;DHT22;3210;48.708;9.030;2023-02-25T09:54:29;4.60;16.30
6355;DHT22;3210;48.708;9.030;2023-02-25T09:56:59;4.30;1.00
6355;DHT22;3210;48.708;9.030;2023-02-25T09:59:29;4.10;1.00
6355;DHT22;3210;48.708;9.030;2023-02-25T10:01:58;4.10;1.00
6355;DHT22;3210;48.708;9.030;2023-02-25T10:04:31;4.10;1.00
6355;DHT22;3210;48.708;9.030;2023-02-25T10:07:07;4.40;1.00
6355;DHT22;3210;48.708;9.030;2023-02-25T10:09:45;5.00;1.00
6355;DHT22;3210;48.708;9.030;2023-02-25T10:12:22;5.50;1.00
6355;DHT22;3210;48.708;9.030;2023-02-25T10:15:00;5.60;1.00
6355;DHT22;3210;48.708;9.030;2023-02-25T10:17:34;5.70;1.00
6355;DHT22;3210;48.708;9.030;2023-02-25T10:20:42;5.60;1.00
6355;DHT22;3210;48.708;9.030;2023-02-25T10:23:22;5.40;1.00
6355;DHT22;3210;48.708;9.030;2023-02-25T10:25:56;5.10;1.00
6355;DHT22;3210;48.708;9.030;2023-02-25T10:28:23;5.20;1.00
6355;DHT22;3210;48.708;9.030;2023-02-25T10:30:57;5.30;1.00
6355;DHT22;3210;48.708;9.030;2023-02-25T10:33:26;5.40;1.00
6355;DHT22;3210;48.708;9.030;2023-02-25T10:35:59;5.40;1.00
6355;DHT22;3210;48.708;9.030;2023-02-25T10:38:28;5.40;1.00
6355;DHT22;3210;48.708;9.030;2023-02-25T10:40:56;5.30;1.00
6355;DHT22;3210;48.708;9.030;2023-02-25T10:43:25;5.10;1.00
6355;DHT22;3210;48.708;9.030;2023-02-25T10:45:59;5.10;1.00
6355;DHT22;3210;48.708;9.030;2023-02-25T10:48:27;5.30;1.00
6355;DHT22;3210;48.708;9.030;2023-02-25T10:51:03;5.30;1.00
6355;DHT22;3210;48.708;9.030;2023-02-25T10:53:31;5.50;1.00
6355;DHT22;3210;48.708;9.030;2023-02-25T10:55:59;5.50;1.00
6355;DHT22;3210;48.708;9.030;2023-02-25T10:58:31;5.80;1.00
6355;DHT22;3210;48.708;9.030;2023-02-25T11:01:06;5.60;1.00
6355;DHT22;3210;48.708;9.030;2023-02-25T11:03:54;5.50;1.00
6355;DHT22;3210;48.708;9.030;2023-02-25T11:06:27;5.50;1.00
6355;DHT22;3210;48.708;9.030;2023-02-25T11:08:58;5.40;1.00
6355;DHT22;3210;48.708;9.030;2023-02-25T11:11:52;5.30;1.00
6355;DHT22;3210;48.708;9.030;2023-02-25T11:14:25;5.30;1.00
6355;DHT22;3210;48.708;9.030;2023-02-25T11:17:00;5.30;1.00
6355;DHT22;3210;48.708;9.030;2023-02-25T11:19:29;5.10;1.00
6355;DHT22;3210;48.708;9.030;2023-02-25T11:21:58;5.10;1.00
6355;DHT22;3210;48.708;9.030;2023-02-25T11:24:33;5.10;1.00
6355;DHT22;3210;48.708;9.030;2023-02-25T11:27:01;5.00;1.00
6355;DHT22;3210;48.708;9.030;2023-02-25T11:29:30;5.20;1.00
6355;DHT22;3210;48.708;9.030;2023-02-25T11:32:06;5.40;1.00
6355;DHT22;3210;48.708;9.030;2023-02-25T11:34:37;5.40;1.00
6355;DHT22;3210;48.708;9.030;2023-02-25T11:37:28;5.40;1.00
6355;DHT22;3210;48.708;9.030;2023-02-25T11:39:59;5.50;1.00
6355;DHT22;3210;48.708;9.030;2023-02-25T11:42:27;5.60;1.00
6355;DHT22;3210;48.708;9.030;2023-02-25T11:44:58;5.80;1.00
6355;DHT22;3210;48.708;9.030;2023-02-25T11:47:28;5.80;1.00
6355;DHT22;3210;48.708;9.030;2023-02-25T11:50:14;5.70;1.00
6355;DHT22;3210;48.708;9.030;2023-02-25T11:52:48;5.80;1.00
6355;DHT22;3210;48.708;9.030;2023-02-25T11:55:23;5.80;1.00
6355;DHT22;3210;48.708;9.030;2023-02-25T11:58:02;5.50;1.00
6355;DHT22;3210;48.708;9.030;2023-02-25T12:00:36;5.40;1.00
6355;DHT22;3210;48.708;9.030;2023-02-25T12:03:36;5.20;1.00
6355;DHT22;3210;48.708;9.030;2023-02-25T12:06:16;5.10;1.00
6355;DHT22;3210;48.708;9.030;2023-02-25T12:08:58;5.00;1.00
6355;DHT22;3210;48.708;9.030;2023-02-25T12:12:00;4.90;1.00
6355;DHT22;3210;48.708;9.030;2023-02-25T12:18:15;4.70;1.00
6355;DHT22;3210;48.708;9.030;2023-02-25T12:21:24;4.60;1.00
6355;DHT22;3210;48.708;9.030;2023-02-25T12:24:14;4.60;1.00
6355;DHT22;3210;48.708;9.030;2023-02-25T12:27:05;4.70;1.00
6355;DHT22;3210;48.708;9.030;2023-02-25T12:29:58;4.70;1.00
6355;DHT22;3210;48.708;9.030;2023-02-25T12:32:42;4.70;1.00
6355;DHT22;3210;48.708;9.030;2023-02-25T12:35:37;4.70;1.00
6355;DHT22;3210;48.708;9.030;2023-02-25T12:38:27;4.70;1.00
6355;DHT22;3210;48.708;9.030;2023-02-25T12:41:19;4.70;1.00
6355;DHT22;3210;48.708;9.030;2023-02-25T12:43:52;4.70;1.00
6355;DHT22;3210;48.708;9.030;2023-02-25T12:46:37;4.80;1.00
6355;DHT22;3210;48.708;9.030;2023-02-25T12:49:32;4.80;1.00
6355;DHT22;3210;48.708;9.030;2023-02-25T12:52:12;4.80;1.00
6355;DHT22;3210;48.708;9.030;2023-02-25T12:55:12;4.60;1.00
6355;DHT22;3210;48.708;9.030;2023-02-25T12:57:45;4.60;1.00
6355;DHT22;3210;48.708;9.030;2023-02-25T13:00:44;4.50;1.00
6355;DHT22;3210;48.708;9.030;2023-02-25T13:03:24;4.50;1.00
6355;DHT22;3210;48.708;9.030;2023-02-25T13:06:20;4.40;1.00
6355;DHT22;3210;48.708;9.030;2023-02-25T13:11:53;4.30;1.00
6355;DHT22;3210;48.708;9.030;2023-02-25T13:14:30;4.30;1.00
6355;DHT22;3210;48.708;9.030;2023-02-25T13:17:20;4.40;1.00
6355;DHT22;3210;48.708;9.030;2023-02-25T13:20:04;4.30;1.00
6355;DHT22;3210;48.708;9.030;2023-02-25T13:22:50;4.20;1.00
6355;DHT22;3210;48.708;9.030;2023-02-25T13:25:23;4.20;1.00
6355;DHT22;3210;48.708;9.030;2023-02-25T13:28:10;4.00;1.00
6355;DHT22;3210;48.708;9.030;2023-02-25T13:30:49;3.70;1.00
6355;DHT22;3210;48.708;9.030;2023-02-25T13:33:47;3.60;1.00
6355;DHT22;3210;48.708;9.030;2023-02-25T13:36:33;3.60;1.00
6355;DHT22;3210;48.708;9.030;2023-02-25T13:39:21;3.70;1.00
6355;DHT22;3210;48.708;9.030;2023-02-25T13:42:03;3.60;1.00
6355;DHT22;3210;48.708;9.030;2023-02-25T13:44:44;3.60;1.00
6355;DHT22;3210;48.708;9.030;2023-02-25T13:47:34;3.70;1.00
6355;DHT22;3210;48.708;9.030;2023-02-25T13:50:31;3.80;1.00
6355;DHT22;3210;48.708;9.030;2023-02-25T13:53:12;4.00;1.00
6355;DHT22;3210;48.708;9.030;2023-02-25T13:55:51;4.10;1.00
6355;DHT22;3210;48.708;9.030;2023-02-25T13:58:39;4.30;1.00
6355;DHT22;3210;48.708;9.030;2023-02-25T14:01:27;4.30;1.00
6355;DHT22;3210;48.708;9.030;2023-02-25T14:04:23;4.40;1.00
6355;DHT22;3210;48.708;9.030;2023-02-25T14:09:59;4.30;1.00
6355;DHT22;3210;48.708;9.030;2023-02-25T14:12:40;4.40;1.00
6355;DHT22;3210;48.708;9.030;2023-02-25T14:15:31;4.60;1.00
6355;DHT22;3210;48.708;9.030;2023-02-25T14:18:26;4.60;1.00
6355;DHT22;3210;48.708;9.030;2023-02-25T14:21:07;4.50;1.00
6355;DHT22;3210;48.708;9.030;2023-02-25T14:23:44;4.40;1.00
6355;DHT22;3210;48.708;9.030;2023-02-25T14:26:29;4.30;1.00
6355;DHT22;3210;48.708;9.030;2023-02-25T14:29:11;4.30;1.00
6355;DHT22;3210;48.708;9.030;2023-02-25T14:32:12;4.30;1.00
6355;DHT22;3210;48.708;9.030;2023-02-25T14:34:50;4.10;1.00
6355;DHT22;3210;48.708;9.030;2023-02-25T14:37:36;4.10;1.00
6355;DHT22;3210;48.708;9.030;2023-02-25T14:40:22;4.30;1.00
6355;DHT22;3210;48.708;9.030;2023-02-25T14:43:11;4.50;1.00
6355;DHT22;3210;48.708;9.030;2023-02-25T14:45:48;4.50;1.00
6355;DHT22;3210;48.708;9.030;2023-02-25T14:48:22;4.60;1.00
6355;DHT22;3210;48.708;9.030;2023-02-25T14:51:01;4.50;1.00
6355;DHT22;3210;48.708;9.030;2023-02-25T14:54:11;4.50;1.00
6355;DHT22;3210;48.708;9.030;2023-02-25T14:56:54;4.50;1.00
6355;DHT22;3210;48.708;9.030;2023-02-25T14:59:39;4.40;1.00
6355;DHT22;3210;48.708;9.030;2023-02-25T15:02:38;4.50;1.00
6355;DHT22;3210;48.708;9.030;2023-02-25T15:05:30;4.50;1.00
6355;DHT22;3210;48.708;9.030;2023-02-25T15:08:24;4.50;1.00
6355;DHT22;3210;48.708;9.030;2023-02-25T15:11:33;4.60;1.00
6355;DHT22;3210;48.708;9.030;2023-02-25T15:14:19;4.60;1.00
6355;DHT22;3210;48.708;9.030;2023-02-25T15:17:04;4.60;1.00
6355;DHT22;3210;48.708;9.030;2023-02-25T15:19:48;4.60;1.00
6355;DHT22;3210;48.708;9.030;2023-02-25T15:22:22;4.70;1.00
6355;DHT22;3210;48.708;9.030;2023-02-25T15:24:51;4.60;1.00
6355;DHT22;3210;48.708;9.030;2023-02-25T15:27:46;4.70;1.00
6355;DHT22;3210;48.708;9.030;2023-02-25T15:30:16;4.70;1.00
6355;DHT22;3210;48.708;9.030;2023-02-25T15:35:58;4.70;1.00
6355;DHT22;3210;48.708;9.030;2023-02-25T15:38:43;4.70;1.00
6355;DHT22;3210;48.708;9.030;2023-02-25T15:41:37;4.70;1.00
6355;DHT22;3210;48.708;9.030;2023-02-25T15:44:32;4.60;1.00
6355;DHT22;3210;48.708;9.030;2023-02-25T15:47:17;4.50;1.00
6355;DHT22;3210;48.708;9.030;2023-02-25T15:49:48;4.60;1.00
6355;DHT22;3210;48.708;9.030;2023-02-25T15:52:53;4.60;1.00
6355;DHT22;3210;48.708;9.030;2023-02-25T15:55:37;4.60;1.00
6355;DHT22;3210;48.708;9.030;2023-02-25T16:01:37;4.50;1.00
6355;DHT22;3210;48.708;9.030;2023-02-25T16:07:19;4.40;1.00
6355;DHT22;3210;48.708;9.030;2023-02-25T16:09:54;4.50;1.00
6355;DHT22;3210;48.708;9.030;2023-02-25T16:12:23;4.40;1.00
6355;DHT22;3210;48.708;9.030;2023-02-25T16:14:51;4.40;1.00
6355;DHT22;3210;48.708;9.030;2023-02-25T16:17:24;4.30;1.00
6355;DHT22;3210;48.708;9.030;2023-02-25T16:19:54;4.30;1.00
6355;DHT22;3210;48.708;9.030;2023-02-25T16:22:23;4.20;1.00
6355;DHT22;3210;48.708;9.030;2023-02-25T16:24:53;4.00;1.00
6355;DHT22;3210;48.708;9.030;2023-02-25T16:27:42;3.80;1.00
6355;DHT22;3210;48.708;9.030;2023-02-25T16:30:15;3.80;1.00
6355;DHT22;3210;48.708;9.030;2023-02-25T16:32:52;3.60;1.00
6355;DHT22;3210;48.708;9.030;2023-02-25T16:35:26;3.50;1.00
6355;DHT22;3210;48.708;9.030;2023-02-25T16:38:00;3.30;1.00
6355;DHT22;3210;48.708;9.030;2023-02-25T16:40:35;3.20;1.00
6355;DHT22;3210;48.708;9.030;2023-02-25T16:43:02;3.20;1.00
6355;DHT22;3210;48.708;9.030;2023-02-25T16:45:33;3.00;1.00
6355;DHT22;3210;48.708;9.030;2023-02-25T16:48:06;2.90;1.00
6355;DHT22;3210;48.708;9.030;2023-02-25T16:50:34;2.90;1.00
6355;DHT22;3210;48.708;9.030;2023-02-25T16:53:02;3.00;1.00
6355;DHT22;3210;48.708;9.030;2023-02-25T16:55:35;2.90;1.00
6355;DHT22;3210;48.708;9.030;2023-02-25T16:58:09;2.90;1.00
6355;DHT22;3210;48.708;9.030;2023-02-25T17:00:48;2.80;1.00
6355;DHT22;3210;48.708;9.030;2023-02-25T17:03:18;2.70;1.00
6355;DHT22;3210;48.708;9.030;2023-02-25T17:06:03;2.70;1.00
6355;DHT22;3210;48.708;9.030;2023-02-25T17:08:30;2.80;1.00
6355;DHT22;3210;48.708;9.030;2023-02-25T17:10:59;2.60;1.00
6355;DHT22;3210;48.708;9.030;2023-02-25T17:13:31;2.50;1.00
6355;DHT22;3210;48.708;9.030;2023-02-25T17:16:00;2.60;1.00
6355;DHT22;3210;48.708;9.030;2023-02-25T17:18:31;2.60;1.00
6355;DHT22;3210;48.708;9.030;2023-02-25T17:21:01;2.70;1.00
6355;DHT22;3210;48.708;9.030;2023-02-25T17:23:29;2.80;1.00
6355;DHT22;3210;48.708;9.030;2023-02-25T17:25:56;2.60;1.00
6355;DHT22;3210;48.708;9.030;2023-02-25T17:28:27;2.60;4.50
6355;DHT22;3210;48.708;9.030;2023-02-25T17:31:05;2.60;1.00